KSHR/SHR METAR and TAF weather

Enter ICAO airport designator
Station Type Date Time Source
KSHR METAR 2019/10/23 13:31 UTC NOAA

KSHR 231331Z AUTO 31017G25KT 10SM SCT022 OVC055 03/01 A3006 RMK AO2 PK WND 32028/1256 RAE25 P0001 T00330006


Station Type Date Time Source
KSHR Decoded METAR 2019/10/23 13:31 UTC NOAA

SHERIDAN COUNTY AIRPORT, WY, United States (KSHR) 44-46N 106-58W 1202M
Oct 23, 2019 - 09:31 AM EDT / 2019.10.23 1331 UTC
Wind: from the NW (310 degrees) at 20 MPH (17 KT) gusting to 29 MPH (25 KT):0
Visibility: 10 mile(s):0
Sky conditions: overcast
Precipitation last hour: 0.01 inches
Temperature: 37.9 F (3.3 C)
Dew Point: 33.1 F (0.6 C)
Relative Humidity: 82%
Pressure (altimeter): 30.06 in. Hg (1017 hPa)
ob: KSHR 231331Z AUTO 31017G25KT 10SM SCT022 OVC055 03/01 A3006 RMK AO2 PK WND 32028/1256 RAE25 P0001 T00330006
cycle: 13

Station Type Date Time Source
KSHR TAF 2019/10/23 12:36 UTC NOAA

TAF KSHR 231135Z 2312/2412 31016G26KT P6SM VCSH OVC050
FM231400 31018G28KT 5SM -RASN OVC015
FM232000 31018G28KT P6SM VCSH OVC040
FM240000 32012KT P6SM SCT060 BKN120

Example: see airport list